Time,TemperatureF,DewpointF,PressureIn,WindDirection,WindDirectionDegrees,WindSpeedMPH,WindSpeedGustMPH,Humidity,HourlyPrecipIn,Conditions,Clouds,dailyrainin,SolarRadiationWatts/m^2,SoftwareType,DateUTC
2014-01-19 00:00:00,15.5,10.4,29.93,West,271,0.0,0.0,80,0.00,,,0.00,0,Wunderground v.1.15,2014-01-19 05:00:00,
2014-01-19 00:10:00,16.2,11.4,29.93,SSW,192,0.0,0.0,81,0.00,,,0.00,0,Wunderground v.1.15,2014-01-19 05:10:00,
2014-01-19 00:20:00,17.0,12.2,29.93,SSE,164,0.0,0.0,81,0.00,,,0.00,0,Wunderground v.1.15,2014-01-19 05:20:00,
2014-01-19 00:30:00,17.6,12.5,29.92,SSE,164,0.0,0.0,80,0.00,,,0.00,0,Wunderground v.1.15,2014-01-19 05:30:00,
2014-01-19 00:40:00,18.1,13.0,29.92,SSE,164,0.0,0.0,80,0.00,,,0.00,0,Wunderground v.1.15,2014-01-19 05:40:00,
2014-01-19 00:50:00,18.5,13.1,29.92,SSE,164,0.0,0.0,79,0.00,,,0.00,0,Wunderground v.1.15,2014-01-19 05:50:00,
2014-01-19 01:00:00,18.9,13.2,29.92,SSE,164,0.0,0.0,78,0.00,,,0.00,0,Wunderground v.1.15,2014-01-19 06:00:00,
2014-01-19 01:10:00,19.2,13.5,29.92,SSE,164,0.0,0.0,78,0.00,,,0.00,0,Wunderground v.1.15,2014-01-19 06:10:00,
2014-01-19 01:20:00,19.6,13.6,29.91,SSE,164,0.0,0.0,77,0.00,,,0.00,0,Wunderground v.1.15,2014-01-19 06:20:00,
2014-01-19 01:30:00,19.7,13.4,29.91,SSE,164,0.0,0.0,76,0.00,,,0.00,0,Wunderground v.1.15,2014-01-19 06:30:00,
2014-01-19 01:40:00,20.0,13.6,29.91,SSE,164,0.0,0.0,76,0.00,,,0.00,0,Wunderground v.1.15,2014-01-19 06:40:00,
2014-01-19 01:50:00,20.2,13.5,29.90,SSE,164,0.0,1.0,75,0.00,,,0.00,0,Wunderground v.1.15,2014-01-19 06:50:00,
2014-01-19 02:00:00,20.2,13.5,29.90,SSE,164,0.0,0.0,75,0.00,,,0.00,0,Wunderground v.1.15,2014-01-19 07:00:00,
2014-01-19 02:10:00,20.2,13.2,29.90,SSE,164,0.0,0.0,74,0.00,,,0.00,0,Wunderground v.1.15,2014-01-19 07:10:00,
2014-01-19 02:20:00,20.2,13.2,29.90,SSE,164,0.0,0.0,74,0.00,,,0.00,0,Wunderground v.1.15,2014-01-19 07:20:00,
2014-01-19 02:30:00,20.2,13.2,29.90,SSE,164,0.0,0.0,74,0.00,,,0.00,0,Wunderground v.1.15,2014-01-19 07:30:00,
2014-01-19 02:40:00,20.1,13.1,29.90,SSE,164,0.0,0.0,74,0.00,,,0.00,0,Wunderground v.1.15,2014-01-19 07:40:00,
2014-01-19 02:50:00,20.0,13.0,29.89,SSE,164,0.0,0.0,74,0.00,,,0.00,0,Wunderground v.1.15,2014-01-19 07:50:00,
2014-01-19 03:00:00,20.0,13.0,29.90,SSE,164,0.0,0.0,74,0.00,,,0.00,0,Wunderground v.1.15,2014-01-19 08:00:00,
2014-01-19 03:10:00,20.0,13.0,29.89,SSE,164,0.0,0.0,74,0.00,,,0.00,0,Wunderground v.1.15,2014-01-19 08:10:00,
2014-01-19 03:20:00,20.2,13.5,29.88,SSE,164,0.0,0.0,75,0.00,,,0.00,0,Wunderground v.1.15,2014-01-19 08:20:00,
2014-01-19 03:30:00,20.2,13.8,29.87,SSE,164,0.0,0.0,76,0.00,,,0.00,0,Wunderground v.1.15,2014-01-19 08:30:00,
2014-01-19 03:40:00,20.0,13.9,29.87,SSE,164,0.0,0.0,77,0.00,,,0.00,0,Wunderground v.1.15,2014-01-19 08:40:00,
2014-01-19 03:50:00,19.9,13.9,29.86,SSE,164,0.0,0.0,77,0.00,,,0.00,0,Wunderground v.1.15,2014-01-19 08:50:00,
2014-01-19 04:00:00,19.7,13.7,29.86,SSE,164,0.0,0.0,77,0.00,,,0.00,0,Wunderground v.1.15,2014-01-19 09:00:00,
2014-01-19 04:10:00,19.7,13.7,29.86,SSE,164,0.0,0.0,77,0.00,,,0.00,0,Wunderground v.1.15,2014-01-19 09:10:00,
2014-01-19 04:20:00,19.6,13.6,29.86,SSE,164,0.0,0.0,77,0.00,,,0.00,0,Wunderground v.1.15,2014-01-19 09:20:00,
2014-01-19 04:30:00,19.4,13.4,29.86,SSE,164,0.0,0.0,77,0.00,,,0.00,0,Wunderground v.1.15,2014-01-19 09:30:00,
2014-01-19 04:40:00,19.3,13.6,29.85,SSE,164,0.0,0.0,78,0.00,,,0.00,0,Wunderground v.1.15,2014-01-19 09:40:00,
2014-01-19 04:50:00,19.3,13.9,29.85,SSE,164,0.0,0.0,79,0.00,,,0.00,0,Wunderground v.1.15,2014-01-19 09:50:00,
2014-01-19 05:00:00,19.3,14.1,29.86,SSE,164,0.0,0.0,80,0.00,,,0.00,0,Wunderground v.1.15,2014-01-19 10:00:00,
2014-01-19 05:10:00,19.4,14.2,29.84,SSE,164,0.0,0.0,80,0.00,,,0.00,0,Wunderground v.1.15,2014-01-19 10:10:00,
2014-01-19 05:20:00,19.7,14.8,29.85,SSE,164,0.0,0.0,81,0.00,,,0.00,0,Wunderground v.1.15,2014-01-19 10:20:00,
2014-01-19 05:30:00,19.7,14.8,29.85,SSE,164,0.0,0.0,81,0.00,,,0.00,0,Wunderground v.1.15,2014-01-19 10:30:00,
2014-01-19 05:40:00,19.7,14.8,29.84,SSE,164,0.0,0.0,81,0.00,,,0.00,0,Wunderground v.1.15,2014-01-19 10:40:00,
2014-01-19 05:50:00,19.9,15.0,29.84,SSE,164,0.0,0.0,81,0.00,,,0.00,0,Wunderground v.1.15,2014-01-19 10:50:00,
2014-01-19 06:00:00,20.0,15.1,29.83,SSE,164,0.0,0.0,81,0.00,,,0.00,0,Wunderground v.1.15,2014-01-19 11:00:00,
2014-01-19 06:10:00,20.1,15.2,29.83,SSE,164,0.0,0.0,81,0.00,,,0.00,0,Wunderground v.1.15,2014-01-19 11:10:00,
2014-01-19 06:20:00,20.2,15.3,29.83,SSE,164,0.0,0.0,81,0.00,,,0.00,0,Wunderground v.1.15,2014-01-19 11:20:00,
2014-01-19 06:30:00,20.4,15.5,29.82,SSE,164,0.0,0.0,81,0.00,,,0.00,0,Wunderground v.1.15,2014-01-19 11:30:00,
2014-01-19 06:40:00,20.5,15.6,29.82,SSE,164,0.0,0.0,81,0.00,,,0.00,0,Wunderground v.1.15,2014-01-19 11:40:00,
2014-01-19 06:50:00,20.5,15.6,29.82,SSE,164,0.0,0.0,81,0.00,,,0.00,0,Wunderground v.1.15,2014-01-19 11:50:00,
2014-01-19 07:00:00,20.5,15.6,29.82,SSE,164,0.0,0.0,81,0.00,,,0.00,0,Wunderground v.1.15,2014-01-19 12:00:00,
2014-01-19 07:10:00,20.5,15.3,29.82,SSE,164,0.0,0.0,80,0.00,,,0.00,0,Wunderground v.1.15,2014-01-19 12:10:00,
2014-01-19 07:20:00,20.5,15.3,29.82,SSE,164,0.0,0.0,80,0.00,,,0.00,0,Wunderground v.1.15,2014-01-19 12:20:00,
2014-01-19 07:30:00,20.4,15.2,29.82,SSE,164,0.0,0.0,80,0.00,,,0.00,5,Wunderground v.1.15,2014-01-19 12:30:00,
2014-01-19 07:40:00,20.3,15.1,29.82,SSE,164,0.0,0.0,80,0.00,,,0.00,14,Wunderground v.1.15,2014-01-19 12:40:00,
2014-01-19 07:50:00,20.2,15.0,29.82,SSE,164,0.0,0.0,80,0.00,,,0.00,23,Wunderground v.1.15,2014-01-19 12:50:00,
2014-01-19 08:00:00,20.3,15.1,29.82,SSE,164,0.0,0.0,80,0.00,,,0.00,21,Wunderground v.1.15,2014-01-19 13:00:00,
2014-01-19 08:10:00,20.4,15.2,29.82,SSE,164,0.0,0.0,80,0.00,,,0.00,35,Wunderground v.1.15,2014-01-19 13:10:00,
2014-01-19 08:20:00,20.6,15.4,29.82,SSE,164,0.0,0.0,80,0.00,,,0.00,42,Wunderground v.1.15,2014-01-19 13:20:00,
2014-01-19 08:30:00,20.8,15.6,29.82,NNE,12,0.0,0.0,80,0.00,,,0.00,113,Wunderground v.1.15,2014-01-19 13:30:00,
2014-01-19 08:40:00,21.3,16.1,29.82,NNE,12,0.0,0.0,80,0.00,,,0.00,105,Wunderground v.1.15,2014-01-19 13:40:00,
2014-01-19 08:50:00,22.4,17.5,29.81,ENE,59,0.0,0.0,81,0.00,,,0.00,248,Wunderground v.1.15,2014-01-19 13:50:00,
2014-01-19 09:00:00,23.7,18.4,29.82,ENE,58,0.0,0.0,80,0.00,,,0.00,271,Wunderground v.1.15,2014-01-19 14:00:00,
2014-01-19 09:10:00,24.2,18.0,29.82,ENE,58,0.0,0.0,77,0.00,,,0.00,294,Wunderground v.1.15,2014-01-19 14:10:00,
2014-01-19 09:20:00,25.5,19.3,29.81,ENE,58,0.0,0.0,77,0.00,,,0.00,346,Wunderground v.1.15,2014-01-19 14:20:00,
2014-01-19 09:30:00,26.9,20.0,29.82,ENE,58,0.0,0.0,75,0.00,,,0.00,179,Wunderground v.1.15,2014-01-19 14:30:00,
2014-01-19 09:40:00,27.6,19.8,29.82,ENE,58,0.0,0.0,72,0.00,,,0.00,162,Wunderground v.1.15,2014-01-19 14:40:00,
2014-01-19 09:50:00,27.8,19.3,29.82,ENE,58,0.0,0.0,70,0.00,,,0.00,130,Wunderground v.1.15,2014-01-19 14:50:00,
2014-01-19 10:00:00,27.9,19.0,29.83,ENE,57,0.0,0.0,69,0.00,,,0.00,95,Wunderground v.1.15,2014-01-19 15:00:00,
2014-01-19 10:10:00,27.8,18.9,29.83,ENE,57,0.0,0.0,69,0.00,,,0.00,76,Wunderground v.1.15,2014-01-19 15:10:00,
2014-01-19 10:20:00,27.8,18.9,29.82,NNW,339,0.0,0.0,69,0.00,,,0.00,88,Wunderground v.1.15,2014-01-19 15:20:00,
2014-01-19 10:30:00,27.9,19.4,29.83,NNW,338,0.0,0.0,70,0.00,,,0.00,107,Wunderground v.1.15,2014-01-19 15:30:00,
2014-01-19 10:40:00,28.3,19.8,29.82,NNW,338,0.0,0.0,70,0.00,,,0.00,251,Wunderground v.1.15,2014-01-19 15:40:00,
2014-01-19 10:50:00,28.5,19.6,29.82,West,265,0.0,0.0,69,0.00,,,0.00,149,Wunderground v.1.15,2014-01-19 15:50:00,
2014-01-19 11:00:00,28.7,19.8,29.82,West,265,0.0,0.0,69,0.00,,,0.00,172,Wunderground v.1.15,2014-01-19 16:00:00,
2014-01-19 11:20:00,29.5,20.6,29.81,WSW,254,0.0,0.0,69,0.00,,,0.00,197,Wunderground v.1.15,2014-01-19 16:20:00,
2014-01-19 11:30:00,30.2,21.2,29.81,West,263,0.0,0.0,69,0.00,,,0.00,204,Wunderground v.1.15,2014-01-19 16:30:00,
2014-01-19 11:40:00,30.8,21.8,29.81,SSW,207,0.0,0.0,69,0.00,,,0.00,221,Wunderground v.1.15,2014-01-19 16:40:00,
2014-01-19 11:50:00,31.9,22.9,29.80,SSW,203,0.0,0.0,69,0.00,,,0.00,243,Wunderground v.1.15,2014-01-19 16:50:00,
2014-01-19 12:00:00,32.7,23.6,29.80,SSW,204,0.0,0.0,69,0.00,,,0.00,216,Wunderground v.1.15,2014-01-19 17:00:00,
2014-01-19 12:10:00,33.6,24.2,29.79,SW,230,0.0,0.0,68,0.00,,,0.00,229,Wunderground v.1.15,2014-01-19 17:10:00,
2014-01-19 12:20:00,34.4,24.9,29.78,South,176,1.0,1.0,68,0.00,,,0.00,234,Wunderground v.1.15,2014-01-19 17:20:00,
2014-01-19 12:30:00,35.4,25.9,29.77,SSW,194,2.0,2.0,68,0.00,,,0.00,223,Wunderground v.1.15,2014-01-19 17:30:00,
2014-01-19 12:40:00,36.1,26.6,29.77,SSE,165,4.0,4.0,68,0.00,,,0.01,213,Wunderground v.1.15,2014-01-19 17:40:00,
2014-01-19 12:50:00,36.6,27.0,29.76,SSW,207,3.0,3.0,68,0.00,,,0.01,134,Wunderground v.1.15,2014-01-19 17:50:00,
2014-01-19 13:00:00,37.6,28.3,29.76,SW,215,4.0,4.0,69,0.00,,,0.01,156,Wunderground v.1.15,2014-01-19 18:00:00,
2014-01-19 13:10:00,38.4,28.8,29.77,WSW,241,2.0,2.0,68,0.00,,,0.01,134,Wunderground v.1.15,2014-01-19 18:10:00,
2014-01-19 13:20:00,38.8,28.4,29.76,West,272,2.0,2.0,66,0.00,,,0.01,111,Wunderground v.1.15,2014-01-19 18:20:00,
2014-01-19 13:30:00,39.0,28.6,29.76,SSW,202,2.0,2.0,66,0.00,,,0.01,146,Wunderground v.1.15,2014-01-19 18:30:00,
2014-01-19 13:40:00,39.9,29.1,29.76,West,278,4.0,4.0,65,0.00,,,0.01,88,Wunderground v.1.15,2014-01-19 18:40:00,
2014-01-19 13:50:00,40.5,28.9,29.76,West,267,5.0,6.0,63,0.00,,,0.01,77,Wunderground v.1.15,2014-01-19 18:50:00,
2014-01-19 14:00:00,41.0,28.6,29.76,West,270,6.0,6.0,61,0.00,,,0.01,90,Wunderground v.1.15,2014-01-19 19:00:00,
2014-01-19 14:10:00,41.9,29.0,29.76,West,281,6.0,6.0,60,0.00,,,0.01,104,Wunderground v.1.15,2014-01-19 19:10:00,
2014-01-19 14:20:00,42.5,28.8,29.76,WSW,252,7.0,8.0,58,0.00,,,0.01,86,Wunderground v.1.15,2014-01-19 19:20:00,
2014-01-19 14:30:00,42.6,28.0,29.76,WSW,253,7.0,9.0,56,0.00,,,0.01,44,Wunderground v.1.15,2014-01-19 19:30:00,
2014-01-19 14:40:00,42.3,27.7,29.75,West,272,9.0,11.0,56,0.00,,,0.01,44,Wunderground v.1.15,2014-01-19 19:40:00,
2014-01-19 14:50:00,42.0,27.4,29.76,West,271,10.0,10.0,56,0.00,,,0.01,37,Wunderground v.1.15,2014-01-19 19:50:00,
2014-01-19 15:00:00,42.0,27.0,29.76,WSW,248,8.0,8.0,55,0.00,,,0.01,35,Wunderground v.1.15,2014-01-19 20:00:00,
2014-01-19 15:10:00,41.8,26.8,29.77,WNW,286,9.0,9.0,55,0.00,,,0.01,35,Wunderground v.1.15,2014-01-19 20:10:00,
2014-01-19 15:20:00,41.8,26.8,29.77,West,279,7.0,7.0,55,0.00,,,0.01,46,Wunderground v.1.15,2014-01-19 20:20:00,
2014-01-19 15:30:00,41.7,26.7,29.76,West,275,8.0,12.0,55,0.00,,,0.01,148,Wunderground v.1.15,2014-01-19 20:30:00,
2014-01-19 15:40:00,41.8,26.8,29.76,West,273,8.0,8.0,55,0.00,,,0.01,88,Wunderground v.1.15,2014-01-19 20:40:00,
2014-01-19 15:50:00,41.6,26.6,29.75,West,272,7.0,7.0,55,0.00,,,0.01,123,Wunderground v.1.15,2014-01-19 20:50:00,
2014-01-19 16:00:00,41.5,26.5,29.75,West,281,6.0,6.0,55,0.00,,,0.01,114,Wunderground v.1.15,2014-01-19 21:00:00,
2014-01-19 16:10:00,41.5,26.5,29.75,West,267,6.0,9.0,55,0.00,,,0.01,97,Wunderground v.1.15,2014-01-19 21:10:00,
2014-01-19 16:20:00,41.5,26.1,29.76,West,279,7.0,9.0,54,0.00,,,0.01,105,Wunderground v.1.15,2014-01-19 21:20:00,
2014-01-19 16:30:00,41.5,26.1,29.76,West,268,6.0,7.0,54,0.00,,,0.01,76,Wunderground v.1.15,2014-01-19 21:30:00,
2014-01-19 16:40:00,41.3,25.9,29.76,West,281,5.0,5.0,54,0.00,,,0.01,47,Wunderground v.1.15,2014-01-19 21:40:00,
2014-01-19 16:50:00,41.1,25.7,29.77,West,269,4.0,4.0,54,0.00,,,0.01,19,Wunderground v.1.15,2014-01-19 21:50:00,
2014-01-19 17:00:00,40.7,25.8,29.77,West,272,4.0,4.0,55,0.00,,,0.01,11,Wunderground v.1.15,2014-01-19 22:00:00,
2014-01-19 17:10:00,40.3,25.4,29.77,West,265,4.0,4.0,55,0.00,,,0.01,7,Wunderground v.1.15,2014-01-19 22:10:00,
2014-01-19 17:20:00,39.9,25.0,29.77,WSW,250,3.0,3.0,55,0.00,,,0.01,0,Wunderground v.1.15,2014-01-19 22:20:00,
2014-01-19 17:30:00,39.8,24.5,29.78,WSW,249,4.0,6.0,54,0.00,,,0.01,0,Wunderground v.1.15,2014-01-19 22:30:00,
2014-01-19 17:40:00,39.8,24.5,29.77,WSW,241,3.0,5.0,54,0.00,,,0.01,0,Wunderground v.1.15,2014-01-19 22:40:00,
2014-01-19 17:50:00,39.6,24.3,29.78,West,260,3.0,3.0,54,0.00,,,0.01,0,Wunderground v.1.15,2014-01-19 22:50:00,
2014-01-19 18:00:00,39.4,23.7,29.78,West,273,3.0,6.0,53,0.00,,,0.01,0,Wunderground v.1.15,2014-01-19 23:00:00,
2014-01-19 18:10:00,39.3,23.6,29.78,West,260,3.0,3.0,53,0.00,,,0.01,0,Wunderground v.1.15,2014-01-19 23:10:00,
2014-01-19 18:20:00,39.2,23.9,29.78,WSW,258,0.0,0.0,54,0.00,,,0.01,0,Wunderground v.1.15,2014-01-19 23:20:00,
2014-01-19 18:30:00,38.7,23.9,29.78,WSW,258,0.0,0.0,55,0.00,,,0.01,0,Wunderground v.1.15,2014-01-19 23:30:00,
2014-01-19 18:40:00,38.0,23.7,29.77,WSW,258,0.0,0.0,56,0.00,,,0.01,0,Wunderground v.1.15,2014-01-19 23:40:00,
2014-01-19 18:50:00,37.3,23.4,29.77,WSW,246,0.0,0.0,57,0.00,,,0.01,0,Wunderground v.1.15,2014-01-19 23:50:00,
2014-01-19 19:00:00,36.6,23.2,29.77,WSW,240,0.0,0.0,58,0.00,,,0.01,0,Wunderground v.1.15,2014-01-20 00:00:00,
2014-01-19 19:10:00,36.0,23.0,29.77,WSW,240,0.0,0.0,59,0.00,,,0.01,0,Wunderground v.1.15,2014-01-20 00:10:00,
2014-01-19 19:20:00,35.6,23.1,29.77,WSW,240,0.0,0.0,60,0.00,,,0.01,0,Wunderground v.1.15,2014-01-20 00:20:00,
2014-01-19 19:30:00,35.2,23.1,29.76,WSW,240,0.0,0.0,61,0.00,,,0.01,0,Wunderground v.1.15,2014-01-20 00:30:00,
2014-01-19 19:40:00,34.9,22.8,29.76,WSW,240,0.0,0.0,61,0.00,,,0.01,0,Wunderground v.1.15,2014-01-20 00:40:00,
2014-01-19 19:50:00,34.7,22.6,29.76,WSW,240,0.0,0.0,61,0.00,,,0.01,0,Wunderground v.1.15,2014-01-20 00:50:00,
2014-01-19 20:00:00,34.6,22.9,29.76,WSW,240,0.0,0.0,62,0.00,,,0.01,0,Wunderground v.1.15,2014-01-20 01:00:00,
2014-01-19 20:10:00,34.4,22.7,29.76,WSW,240,0.0,0.0,62,0.00,,,0.01,0,Wunderground v.1.15,2014-01-20 01:10:00,
2014-01-19 20:20:00,34.4,23.1,29.76,WSW,240,0.0,0.0,63,0.00,,,0.01,0,Wunderground v.1.15,2014-01-20 01:20:00,
2014-01-19 20:30:00,34.4,23.1,29.76,WSW,240,0.0,0.0,63,0.00,,,0.01,0,Wunderground v.1.15,2014-01-20 01:30:00,
2014-01-19 20:40:00,34.6,23.3,29.76,SW,221,0.0,0.0,63,0.00,,,0.01,0,Wunderground v.1.15,2014-01-20 01:40:00,
2014-01-19 20:50:00,35.0,23.7,29.75,SSW,209,0.0,1.0,63,0.00,,,0.01,0,Wunderground v.1.15,2014-01-20 01:50:00,
2014-01-19 21:00:00,35.2,23.9,29.75,South,179,0.0,0.0,63,0.00,,,0.01,0,Wunderground v.1.15,2014-01-20 02:00:00,
2014-01-19 21:10:00,35.3,24.0,29.75,South,189,0.0,0.0,63,0.00,,,0.01,0,Wunderground v.1.15,2014-01-20 02:10:00,
2014-01-19 21:20:00,35.6,24.2,29.75,SW,229,0.0,2.0,63,0.00,,,0.01,0,Wunderground v.1.15,2014-01-20 02:20:00,
2014-01-19 21:30:00,36.0,25.0,29.75,SW,227,2.0,3.0,64,0.00,,,0.01,0,Wunderground v.1.15,2014-01-20 02:30:00,
2014-01-19 21:40:00,36.4,25.4,29.75,SW,220,1.0,2.0,64,0.00,,,0.01,0,Wunderground v.1.15,2014-01-20 02:40:00,
2014-01-19 21:50:00,36.6,25.6,29.75,SW,233,0.0,0.0,64,0.00,,,0.01,0,Wunderground v.1.15,2014-01-20 02:50:00,
2014-01-19 22:00:00,36.6,25.6,29.74,SW,232,0.0,0.0,64,0.00,,,0.01,0,Wunderground v.1.15,2014-01-20 03:00:00,
2014-01-19 22:10:00,36.4,25.4,29.74,SW,229,0.0,0.0,64,0.00,,,0.01,0,Wunderground v.1.15,2014-01-20 03:10:00,
2014-01-19 22:20:00,36.4,25.7,29.75,WSW,248,0.0,0.0,65,0.00,,,0.01,0,Wunderground v.1.15,2014-01-20 03:20:00,
2014-01-19 22:30:00,36.4,25.7,29.74,WSW,252,0.0,0.0,65,0.00,,,0.01,0,Wunderground v.1.15,2014-01-20 03:30:00,
2014-01-19 22:40:00,36.3,25.7,29.74,WSW,252,0.0,0.0,65,0.00,,,0.01,0,Wunderground v.1.15,2014-01-20 03:40:00,
2014-01-19 22:50:00,36.1,25.5,29.73,WSW,252,0.0,0.0,65,0.00,,,0.01,0,Wunderground v.1.15,2014-01-20 03:50:00,
2014-01-19 23:00:00,35.7,25.1,29.73,WSW,251,0.0,0.0,65,0.00,,,0.01,0,Wunderground v.1.15,2014-01-20 04:00:00,
2014-01-19 23:10:00,35.3,25.1,29.73,WSW,251,0.0,0.0,66,0.00,,,0.01,0,Wunderground v.1.15,2014-01-20 04:10:00,
2014-01-19 23:20:00,34.9,25.0,29.73,WSW,251,0.0,0.0,67,0.00,,,0.01,0,Wunderground v.1.15,2014-01-20 04:20:00,
2014-01-19 23:30:00,34.4,24.9,29.72,WSW,251,0.0,0.0,68,0.00,,,0.01,0,Wunderground v.1.15,2014-01-20 04:30:00,
2014-01-19 23:40:00,34.4,25.6,29.71,WSW,248,0.0,0.0,70,0.00,,,0.01,0,Wunderground v.1.15,2014-01-20 04:40:00,
2014-01-19 23:50:00,34.2,25.4,29.71,WSW,248,0.0,0.0,70,0.00,,,0.01,0,Wunderground v.1.15,2014-01-20 04:50:00,